Time;durP1;ratioP1;P1;durP2;ratioP2;P2;SDS_P1;SDS_P2;PMS_P1;PMS_P2;Temp;Humidity;BMP_temperature;BMP_pressure;BME280_temperature;BME280_humidity;BME280_pressure;Samples;Min_cycle;Max_cycle;Signal;HPM_P1;HPM_P2
2022/11/22 00:01:25;;;;;;;51.53;20.77;;;;;;;;;;5069162;28;20048;-65
2022/11/22 00:03:51;;;;;;;44.23;18.10;;;;;;;;;;5067568;28;20052;-65
2022/11/22 00:06:17;;;;;;;46.53;19.53;;;;;;;;;;5068837;28;20041;-65
2022/11/22 00:08:43;;;;;;;38.90;18.90;;;;;;;;;;5068579;28;20049;-65
2022/11/22 00:11:09;;;;;;;53.67;21.10;;;;;;;;;;5068231;28;20498;-65
2022/11/22 00:13:35;;;;;;;48.43;18.97;;;;;;;;;;5068852;28;20049;-65
2022/11/22 00:16:02;;;;;;;38.73;18.40;;;;;;;;;;5050548;28;20056;-65
2022/11/22 00:18:29;;;;;;;50.73;21.23;;;;;;;;;;5069346;28;20049;-65
2022/11/22 00:20:55;;;;;;;43.83;18.70;;;;;;;;;;5068947;28;20090;-65
2022/11/22 00:23:21;;;;;;;40.47;17.97;;;;;;;;;;5067373;28;20056;-65
2022/11/22 00:25:47;;;;;;;38.70;19.07;;;;;;;;;;5070224;28;20383;-65
2022/11/22 00:28:13;;;;;;;42.20;19.10;;;;;;;;;;5072813;28;20048;-65
2022/11/22 00:30:39;;;;;;;45.07;20.10;;;;;;;;;;5072359;28;20490;-65
2022/11/22 00:33:05;;;;;;;40.37;19.70;;;;;;;;;;5055596;28;20045;-65
2022/11/22 00:35:31;;;;;;;45.53;21.00;;;;;;;;;;5052535;28;20045;-65
2022/11/22 00:37:57;;;;;;;50.03;20.83;;;;;;;;;;5052634;28;20060;-65
2022/11/22 00:40:23;;;;;;;50.13;22.93;;;;;;;;;;5052185;28;20107;-65
2022/11/22 00:42:49;;;;;;;46.07;19.57;;;;;;;;;;5052177;28;20041;-65
2022/11/22 00:45:15;;;;;;;41.63;19.50;;;;;;;;;;5052078;28;20049;-65
2022/11/22 00:47:41;;;;;;;77.13;27.43;;;;;;;;;;5052488;28;20041;-65
2022/11/22 00:50:08;;;;;;;57.07;21.87;;;;;;;;;;5064097;28;20499;-65
2022/11/22 00:52:34;;;;;;;46.53;19.07;;;;;;;;;;5072041;28;20053;-65
2022/11/22 00:55:00;;;;;;;55.17;21.80;;;;;;;;;;5071448;28;20514;-66
2022/11/22 00:57:26;;;;;;;56.73;23.47;;;;;;;;;;5054122;28;20056;-66
2022/11/22 00:59:52;;;;;;;48.90;19.97;;;;;;;;;;5052297;28;20056;-65
2022/11/22 01:02:18;;;;;;;59.43;25.10;;;;;;;;;;5050675;28;20049;-65
2022/11/22 01:04:44;;;;;;;47.57;22.43;;;;;;;;;;5050137;28;20128;-65
2022/11/22 01:07:10;;;;;;;41.63;19.80;;;;;;;;;;5051482;28;20102;-65
2022/11/22 01:09:36;;;;;;;63.50;23.73;;;;;;;;;;5051945;28;20419;-66
2022/11/22 01:12:02;;;;;;;57.57;22.20;;;;;;;;;;5054165;28;20055;-66
2022/11/22 01:14:28;;;;;;;50.23;21.33;;;;;;;;;;5071595;28;20562;-65
2022/11/22 01:16:54;;;;;;;52.40;22.40;;;;;;;;;;5069932;28;20109;-66
2022/11/22 01:19:20;;;;;;;55.93;22.40;;;;;;;;;;5071604;28;20106;-66
2022/11/22 01:21:47;;;;;;;44.97;20.40;;;;;;;;;;5070622;28;20048;-65
2022/11/22 01:24:13;;;;;;;57.03;23.00;;;;;;;;;;5071482;28;20127;-66
2022/11/22 01:26:39;;;;;;;50.27;21.47;;;;;;;;;;5070915;28;20137;-65
2022/11/22 01:29:05;;;;;;;58.13;24.00;;;;;;;;;;5070324;28;20048;-66
2022/11/22 01:31:31;;;;;;;42.57;18.87;;;;;;;;;;5071054;28;20503;-65
2022/11/22 01:33:58;;;;;;;46.07;20.80;;;;;;;;;;5061264;28;20128;-65
2022/11/22 01:36:24;;;;;;;47.27;20.77;;;;;;;;;;5049982;28;20042;-65
2022/11/22 01:38:50;;;;;;;38.17;18.67;;;;;;;;;;5049359;28;20051;-65
2022/11/22 01:41:16;;;;;;;47.47;20.90;;;;;;;;;;5051236;28;20085;-65
2022/11/22 01:43:42;;;;;;;44.03;19.50;;;;;;;;;;5051287;28;20045;-66
2022/11/22 01:46:28;;;;;;;51.33;22.43;;;;;;;;;;5035059;28;20110;-66
2022/11/22 01:48:56;;;;;;;57.43;22.73;;;;;;;;;;5045839;28;20056;-65
2022/11/22 01:51:29;;;;;;;51.00;22.37;;;;;;;;;;5052227;28;20052;-65
2022/11/22 01:53:58;;;;;;;42.97;19.97;;;;;;;;;;5071133;28;20090;-65
2022/11/22 01:56:24;;;;;;;45.57;18.50;;;;;;;;;;5070882;28;20032;-65
2022/11/22 01:58:55;;;;;;;47.80;21.17;;;;;;;;;;5069069;28;20474;-66
2022/11/22 02:01:21;;;;;;;56.33;22.00;;;;;;;;;;5070901;28;20052;-65
2022/11/22 02:03:48;;;;;;;41.13;19.07;;;;;;;;;;5069627;28;20098;-65
2022/11/22 02:06:15;;;;;;;47.57;20.03;;;;;;;;;;5070771;28;20059;-66
2022/11/22 02:08:47;;;;;;;46.83;20.37;;;;;;;;;;5069989;28;20089;-65
2022/11/22 02:11:14;;;;;;;44.77;19.97;;;;;;;;;;5064896;28;20049;-66
2022/11/22 02:13:42;;;;;;;42.13;20.27;;;;;;;;;;5050188;28;20056;-66
2022/11/22 02:16:09;;;;;;;44.47;20.73;;;;;;;;;;5053318;28;20063;-65
2022/11/22 02:18:36;;;;;;;60.20;23.70;;;;;;;;;;5068943;28;20437;-65
2022/11/22 02:21:02;;;;;;;50.57;20.67;;;;;;;;;;5070396;28;20055;-65
2022/11/22 02:23:39;;;;;;;56.57;22.43;;;;;;;;;;5063158;28;20048;-65
2022/11/22 02:26:05;;;;;;;53.13;20.07;;;;;;;;;;5050102;28;20048;-65
2022/11/22 02:28:34;;;;;;;50.43;21.23;;;;;;;;;;5049363;28;20045;-65
2022/11/22 02:31:00;;;;;;;45.10;21.00;;;;;;;;;;5049164;28;20072;-65
2022/11/22 02:33:26;;;;;;;52.97;21.87;;;;;;;;;;5049766;28;20041;-66
2022/11/22 02:35:52;;;;;;;57.83;23.20;;;;;;;;;;5050337;28;20041;-65
2022/11/22 02:38:23;;;;;;;51.23;22.20;;;;;;;;;;5050043;28;20037;-65
2022/11/22 02:40:52;;;;;;;58.80;22.30;;;;;;;;;;5055209;28;20048;-65
2022/11/22 02:43:20;;;;;;;51.40;21.30;;;;;;;;;;5068644;28;20052;-65
2022/11/22 02:45:46;;;;;;;62.80;23.07;;;;;;;;;;5068710;28;20516;-65
2022/11/22 02:48:13;;;;;;;71.13;24.33;;;;;;;;;;5069513;28;20411;-65
2022/11/22 02:50:39;;;;;;;53.07;22.13;;;;;;;;;;5070030;28;20048;-65
2022/11/22 02:53:06;;;;;;;50.13;21.50;;;;;;;;;;5068925;28;20049;-64
2022/11/22 02:55:32;;;;;;;49.10;21.47;;;;;;;;;;5068641;28;20093;-65
2022/11/22 02:57:58;;;;;;;46.43;21.20;;;;;;;;;;5070003;28;20055;-65
2022/11/22 03:00:24;;;;;;;68.53;23.37;;;;;;;;;;5057978;28;20048;-65
2022/11/22 03:02:50;;;;;;;47.80;20.63;;;;;;;;;;5050075;28;20048;-65
2022/11/22 03:05:17;;;;;;;52.20;21.50;;;;;;;;;;5049312;28;20518;-65
2022/11/22 03:07:43;;;;;;;46.23;20.23;;;;;;;;;;5049365;28;20074;-65
2022/11/22 03:10:09;;;;;;;54.63;22.27;;;;;;;;;;5049776;28;20055;-65
2022/11/22 03:12:35;;;;;;;55.50;20.73;;;;;;;;;;5049306;28;20478;-65
2022/11/22 03:15:01;;;;;;;66.53;23.83;;;;;;;;;;5049216;28;20052;-65
2022/11/22 03:17:27;;;;;;;62.03;24.13;;;;;;;;;;5063309;28;20682;-65
2022/11/22 03:19:53;;;;;;;43.17;19.50;;;;;;;;;;5069024;28;20071;-65
2022/11/22 03:22:19;;;;;;;49.80;21.83;;;;;;;;;;5069135;28;20052;-65
2022/11/22 03:24:45;;;;;;;44.87;20.30;;;;;;;;;;5069521;28;20051;-65
2022/11/22 03:27:11;;;;;;;45.93;21.03;;;;;;;;;;5069724;28;20079;-64
2022/11/22 03:29:38;;;;;;;38.20;20.67;;;;;;;;;;5067535;28;20250;-65
2022/11/22 03:32:05;;;;;;;47.20;19.47;;;;;;;;;;5069338;28;20044;-65
2022/11/22 03:34:31;;;;;;;46.23;20.87;;;;;;;;;;5069521;28;20461;-65
2022/11/22 03:36:57;;;;;;;45.17;20.23;;;;;;;;;;5048170;28;20052;-65
2022/11/22 03:39:23;;;;;;;50.07;21.60;;;;;;;;;;5049002;28;20371;-65
2022/11/22 03:41:49;;;;;;;39.87;18.83;;;;;;;;;;5047549;28;21040;-64
2022/11/22 03:44:15;;;;;;;36.07;17.77;;;;;;;;;;5049081;28;20048;-65
2022/11/22 03:46:41;;;;;;;48.87;22.17;;;;;;;;;;5049286;28;20053;-65
2022/11/22 03:49:07;;;;;;;39.10;18.77;;;;;;;;;;5048999;28;20049;-65
2022/11/22 03:51:33;;;;;;;43.37;19.10;;;;;;;;;;5047151;28;20420;-65
2022/11/22 03:53:59;;;;;;;39.60;17.57;;;;;;;;;;5048912;28;20045;-65
2022/11/22 03:56:25;;;;;;;39.83;19.57;;;;;;;;;;5056524;28;20052;-65
2022/11/22 03:58:51;;;;;;;41.00;18.10;;;;;;;;;;5069012;28;20049;-65
2022/11/22 04:01:17;;;;;;;44.07;19.50;;;;;;;;;;5072789;28;20056;-64
2022/11/22 04:03:43;;;;;;;37.93;18.80;;;;;;;;;;5073158;28;20044;-65
2022/11/22 04:06:09;;;;;;;42.37;19.63;;;;;;;;;;5073223;28;20469;-65
2022/11/22 04:08:35;;;;;;;46.50;20.00;;;;;;;;;;5072902;28;20101;-65
2022/11/22 04:11:01;;;;;;;43.87;19.70;;;;;;;;;;5073414;28;20055;-71
2022/11/22 04:16:13;;;;;;;44.60;19.83;;;;;;;;;;5073272;28;20431;-65
2022/11/22 04:18:39;;;;;;;41.50;20.27;;;;;;;;;;5067956;28;20499;-66
2022/11/22 04:25:12;;;;;;;34.63;19.03;;;;;;;;;;5055062;28;20075;-66
2022/11/22 04:26:36;;;;;;;43.90;21.23;;;;;;;;;;5058766;28;20079;-66
2022/11/22 04:29:02;;;;;;;41.57;19.47;;;;;;;;;;5062812;28;20114;-66
2022/11/22 04:34:13;;;;;;;39.83;18.70;;;;;;;;;;5073302;28;20132;-67
2022/11/22 04:36:39;;;;;;;39.07;19.00;;;;;;;;;;5073233;28;20037;-66
2022/11/22 04:39:05;;;;;;;40.57;19.27;;;;;;;;;;5072865;28;20518;-66
2022/11/22 04:41:31;;;;;;;37.70;20.03;;;;;;;;;;5072850;28;20068;-66
2022/11/22 04:46:42;;;;;;;47.80;20.40;;;;;;;;;;5072722;28;20478;-66
2022/11/22 04:49:08;;;;;;;44.00;20.57;;;;;;;;;;5072772;28;20106;-66
2022/11/22 04:54:19;;;;;;;50.30;20.97;;;;;;;;;;5072939;28;20156;-66
2022/11/22 04:56:45;;;;;;;39.37;19.73;;;;;;;;;;5059904;28;20115;-66
2022/11/22 04:59:11;;;;;;;35.20;16.80;;;;;;;;;;5053019;28;20064;-66
2022/11/22 05:01:37;;;;;;;42.23;19.47;;;;;;;;;;5051791;28;20044;-66
2022/11/22 05:04:03;;;;;;;43.03;18.97;;;;;;;;;;5052595;28;20407;-66
2022/11/22 05:06:29;;;;;;;51.03;20.63;;;;;;;;;;5052700;28;20049;-66
2022/11/22 05:08:56;;;;;;;49.70;20.43;;;;;;;;;;5052472;28;20067;-66
2022/11/22 05:11:22;;;;;;;50.23;20.43;;;;;;;;;;5071252;28;20053;-66
2022/11/22 05:13:48;;;;;;;42.10;19.83;;;;;;;;;;5072342;28;20057;-66
2022/11/22 05:16:14;;;;;;;45.50;20.80;;;;;;;;;;5072256;28;20045;-66
2022/11/22 05:18:41;;;;;;;46.67;20.97;;;;;;;;;;5064232;28;20210;-67
2022/11/22 05:21:08;;;;;;;43.43;19.37;;;;;;;;;;5052324;28;20033;-67
2022/11/22 05:26:19;;;;;;;39.30;18.27;;;;;;;;;;5052393;28;20400;-66
2022/11/22 05:28:45;;;;;;;34.27;16.93;;;;;;;;;;5050712;28;20552;-66
2022/11/22 05:31:13;;;;;;;38.90;17.33;;;;;;;;;;5051034;28;20044;-66
2022/11/22 05:33:40;;;;;;;37.00;15.53;;;;;;;;;;5051294;28;20041;-66
2022/11/22 05:36:06;;;;;;;31.50;16.00;;;;;;;;;;5051497;28;20491;-66
2022/11/22 05:38:34;;;;;;;32.43;18.07;;;;;;;;;;5059681;28;20037;-66
2022/11/22 05:41:01;;;;;;;36.53;17.00;;;;;;;;;;5071753;28;20068;-67
2022/11/22 05:43:27;;;;;;;33.07;17.00;;;;;;;;;;5070633;28;20050;-67
2022/11/22 05:45:53;;;;;;;32.20;15.87;;;;;;;;;;5070199;28;20040;-67
2022/11/22 05:48:19;;;;;;;34.37;15.30;;;;;;;;;;5070320;28;20099;-67
2022/11/22 05:50:46;;;;;;;37.93;16.60;;;;;;;;;;5071303;28;20044;-66
2022/11/22 05:53:12;;;;;;;31.57;15.30;;;;;;;;;;5071995;28;20132;-67
2022/11/22 05:55:38;;;;;;;39.33;17.43;;;;;;;;;;5071697;28;20079;-67
2022/11/22 05:58:04;;;;;;;33.57;14.50;;;;;;;;;;5070062;28;20414;-66
2022/11/22 06:00:30;;;;;;;38.23;15.77;;;;;;;;;;5071550;28;20032;-66
2022/11/22 06:03:00;;;;;;;36.83;17.03;;;;;;;;;;5062837;28;20055;-66
2022/11/22 06:05:27;;;;;;;40.97;15.77;;;;;;;;;;5066657;28;20453;-66
2022/11/22 06:07:53;;;;;;;34.90;15.73;;;;;;;;;;5070263;28;20079;-66
2022/11/22 06:10:19;;;;;;;41.17;16.30;;;;;;;;;;5069961;28;20045;-67
2022/11/22 06:12:45;;;;;;;47.90;16.57;;;;;;;;;;5071137;28;20136;-66
2022/11/22 06:15:11;;;;;;;39.77;15.67;;;;;;;;;;5071498;28;20525;-66
2022/11/22 06:17:37;;;;;;;38.60;15.07;;;;;;;;;;5069739;28;20071;-66
2022/11/22 06:20:04;;;;;;;37.80;14.43;;;;;;;;;;5070461;28;20098;-67
2022/11/22 06:22:30;;;;;;;32.97;14.60;;;;;;;;;;5070357;28;20071;-67
2022/11/22 06:24:56;;;;;;;40.57;15.77;;;;;;;;;;5071226;28;20052;-65
2022/11/22 06:27:22;;;;;;;38.87;14.43;;;;;;;;;;5071035;28;20059;-67
2022/11/22 06:29:48;;;;;;;37.50;13.50;;;;;;;;;;5058295;28;20057;-66
2022/11/22 06:32:14;;;;;;;45.73;15.33;;;;;;;;;;5070040;28;20476;-66
2022/11/22 06:34:40;;;;;;;32.57;13.60;;;;;;;;;;5070748;28;20047;-66
2022/11/22 06:37:06;;;;;;;40.33;14.47;;;;;;;;;;5070980;28;20102;-66
2022/11/22 06:39:32;;;;;;;40.77;16.27;;;;;;;;;;5069478;28;20051;-67
2022/11/22 06:41:58;;;;;;;42.60;14.97;;;;;;;;;;5070621;28;20098;-67
2022/11/22 06:44:24;;;;;;;37.20;13.93;;;;;;;;;;5070535;28;20040;-68
2022/11/22 06:46:50;;;;;;;36.43;13.97;;;;;;;;;;5070729;28;20466;-66
2022/11/22 06:49:16;;;;;;;47.53;14.67;;;;;;;;;;5070622;28;20105;-66
2022/11/22 06:51:42;;;;;;;46.23;16.13;;;;;;;;;;5069308;28;20041;-67
2022/11/22 06:54:11;;;;;;;35.73;13.67;;;;;;;;;;5069665;28;20430;-67
2022/11/22 06:56:39;;;;;;;41.20;12.60;;;;;;;;;;5069323;28;20521;-65
2022/11/22 06:59:05;;;;;;;43.50;14.63;;;;;;;;;;5070048;28;20049;-66
2022/11/22 07:01:32;;;;;;;29.03;11.93;;;;;;;;;;5070170;28;20052;-66
2022/11/22 07:03:58;;;;;;;38.47;11.57;;;;;;;;;;5069905;28;20048;-66
2022/11/22 07:06:35;;;;;;;30.87;11.17;;;;;;;;;;5069857;28;20055;-66
2022/11/22 07:09:03;;;;;;;42.43;12.47;;;;;;;;;;5069723;28;20052;-66
2022/11/22 07:11:30;;;;;;;40.90;11.07;;;;;;;;;;5069898;28;20563;-66
2022/11/22 07:13:57;;;;;;;28.53;10.13;;;;;;;;;;5068100;28;20056;-67
2022/11/22 07:16:23;;;;;;;40.67;11.03;;;;;;;;;;5068902;28;20132;-67
2022/11/22 07:18:49;;;;;;;31.03;9.40;;;;;;;;;;5067812;28;20379;-68
2022/11/22 07:21:17;;;;;;;31.13;11.07;;;;;;;;;;5069759;28;20098;-69
2022/11/22 07:23:44;;;;;;;33.97;9.97;;;;;;;;;;5037460;28;20103;-67
2022/11/22 07:26:11;;;;;;;32.80;9.13;;;;;;;;;;5048503;28;20044;-69
2022/11/22 07:28:37;;;;;;;38.03;10.97;;;;;;;;;;5047562;28;20059;-66
2022/11/22 07:31:04;;;;;;;24.07;7.87;;;;;;;;;;5047922;28;20041;-67
2022/11/22 07:33:30;;;;;;;27.13;8.57;;;;;;;;;;5048167;28;20043;-67
2022/11/22 07:36:02;;;;;;;33.17;8.13;;;;;;;;;;5055396;28;20049;-67
2022/11/22 07:38:28;;;;;;;23.97;8.00;;;;;;;;;;5056578;28;20056;-67
2022/11/22 07:40:55;;;;;;;19.10;8.03;;;;;;;;;;5055314;28;20102;-67
2022/11/22 07:43:21;;;;;;;20.07;7.93;;;;;;;;;;5048353;28;20415;-67
2022/11/22 07:45:47;;;;;;;27.73;8.00;;;;;;;;;;5032142;28;20044;-67
2022/11/22 07:48:13;;;;;;;34.47;7.43;;;;;;;;;;5049406;28;20492;-67
2022/11/22 07:50:40;;;;;;;28.10;6.63;;;;;;;;;;5050853;28;20057;-67
2022/11/22 07:53:07;;;;;;;22.30;6.53;;;;;;;;;;5058072;28;20036;-67
2022/11/22 07:55:33;;;;;;;27.90;8.43;;;;;;;;;;5059949;28;20085;-67
2022/11/22 07:58:00;;;;;;;23.27;6.43;;;;;;;;;;5066800;28;20052;-68
2022/11/22 08:00:26;;;;;;;23.53;6.50;;;;;;;;;;5057436;28;20087;-68
2022/11/22 08:02:52;;;;;;;20.33;7.53;;;;;;;;;;5051226;28;20048;-67
2022/11/22 08:05:19;;;;;;;23.50;6.93;;;;;;;;;;5068022;28;20044;-71
2022/11/22 08:07:49;;;;;;;20.77;6.07;;;;;;;;;;5057395;28;20040;-68
2022/11/22 08:10:15;;;;;;;27.87;5.63;;;;;;;;;;5054625;28;20136;-66
2022/11/22 08:12:41;;;;;;;19.57;6.30;;;;;;;;;;5065805;28;20047;-66
2022/11/22 08:15:08;;;;;;;26.17;5.03;;;;;;;;;;5050221;28;20061;-66
2022/11/22 08:17:34;;;;;;;28.23;5.30;;;;;;;;;;5066814;28;20095;-66
2022/11/22 08:20:00;;;;;;;22.53;5.57;;;;;;;;;;5062089;28;20044;-66
2022/11/22 08:22:27;;;;;;;22.47;5.07;;;;;;;;;;5065089;28;20033;-66
2022/11/22 08:24:53;;;;;;;22.00;5.70;;;;;;;;;;5054404;28;20507;-66
2022/11/22 08:27:19;;;;;;;22.17;6.20;;;;;;;;;;5053200;28;20453;-67
2022/11/22 08:29:45;;;;;;;20.77;5.90;;;;;;;;;;5064625;28;20091;-67
2022/11/22 08:32:11;;;;;;;19.57;4.43;;;;;;;;;;5063482;28;20059;-67
2022/11/22 08:34:37;;;;;;;21.83;4.97;;;;;;;;;;5057523;28;20084;-67
2022/11/22 08:37:03;;;;;;;27.70;6.23;;;;;;;;;;5058882;28;20052;-67
2022/11/22 08:39:30;;;;;;;20.37;5.13;;;;;;;;;;5067320;28;20855;-67
2022/11/22 08:41:56;;;;;;;24.03;4.53;;;;;;;;;;5068124;28;20728;-67
2022/11/22 08:44:22;;;;;;;24.87;5.87;;;;;;;;;;5066440;28;20045;-67
2022/11/22 08:46:48;;;;;;;20.53;4.43;;;;;;;;;;5068757;28;20044;-67
2022/11/22 08:49:14;;;;;;;19.80;5.17;;;;;;;;;;5070944;28;20048;-67
2022/11/22 08:51:43;;;;;;;21.70;5.03;;;;;;;;;;5052618;28;20105;-67
2022/11/22 08:54:13;;;;;;;23.63;4.60;;;;;;;;;;5070700;28;20326;-67
2022/11/22 08:56:39;;;;;;;22.03;6.17;;;;;;;;;;5068805;28;20491;-67
2022/11/22 08:59:06;;;;;;;20.43;4.30;;;;;;;;;;5068657;28;20045;-67
2022/11/22 09:01:32;;;;;;;13.77;3.67;;;;;;;;;;5070161;28;20055;-67
2022/11/22 09:03:58;;;;;;;16.60;5.40;;;;;;;;;;5071277;28;20044;-67
2022/11/22 09:06:24;;;;;;;17.23;4.03;;;;;;;;;;5070986;28;20052;-67
2022/11/22 09:08:50;;;;;;;24.83;3.83;;;;;;;;;;5070736;28;20103;-67
2022/11/22 09:11:17;;;;;;;19.87;3.80;;;;;;;;;;5057084;28;20080;-67
2022/11/22 09:13:44;;;;;;;21.53;4.30;;;;;;;;;;5069199;28;20128;-66
2022/11/22 09:16:11;;;;;;;23.00;4.53;;;;;;;;;;5052938;28;20128;-66
2022/11/22 09:18:37;;;;;;;14.53;4.60;;;;;;;;;;5069450;28;20044;-67
2022/11/22 09:21:05;;;;;;;16.03;3.07;;;;;;;;;;5069280;28;20040;-67
2022/11/22 09:23:31;;;;;;;13.23;3.47;;;;;;;;;;5070672;28;20124;-67
2022/11/22 09:25:58;;;;;;;27.70;4.27;;;;;;;;;;5070781;28;20473;-67
2022/11/22 09:28:25;;;;;;;14.43;3.60;;;;;;;;;;5067819;28;20052;-67
2022/11/22 09:30:58;;;;;;;19.07;5.53;;;;;;;;;;5069757;28;20522;-67
2022/11/22 09:33:24;;;;;;;16.93;4.23;;;;;;;;;;5067805;28;20052;-66
2022/11/22 09:35:50;;;;;;;14.67;3.70;;;;;;;;;;5070577;28;20049;-67
2022/11/22 09:38:16;;;;;;;15.20;3.93;;;;;;;;;;5057873;28;20055;-66
2022/11/22 09:40:46;;;;;;;15.07;3.37;;;;;;;;;;5055925;28;20591;-66
2022/11/22 09:43:18;;;;;;;15.67;3.40;;;;;;;;;;5068231;28;20125;-66
2022/11/22 09:45:54;;;;;;;13.30;4.40;;;;;;;;;;5063427;28;20059;-66
2022/11/22 09:48:20;;;;;;;13.47;2.70;;;;;;;;;;5067694;28;20049;-66
2022/11/22 09:50:46;;;;;;;14.67;3.37;;;;;;;;;;5070358;28;20048;-66
2022/11/22 09:53:17;;;;;;;15.67;3.80;;;;;;;;;;5069614;28;20048;-66
2022/11/22 09:55:48;;;;;;;15.60;4.07;;;;;;;;;;5067661;28;20067;-67
2022/11/22 09:58:27;;;;;;;12.90;3.27;;;;;;;;;;5069353;28;20080;-69
2022/11/22 10:00:55;;;;;;;15.93;4.47;;;;;;;;;;5063250;28;20572;-68
2022/11/22 10:03:37;;;;;;;11.40;4.50;;;;;;;;;;5049631;28;20041;-67
2022/11/22 10:06:06;;;;;;;13.57;3.90;;;;;;;;;;5035195;28;20498;-68
2022/11/22 10:08:35;;;;;;;14.33;3.20;;;;;;;;;;5063349;28;20495;-65
2022/11/22 10:11:03;;;;;;;11.80;3.37;;;;;;;;;;5052209;28;20117;-65
2022/11/22 10:13:32;;;;;;;12.50;2.67;;;;;;;;;;5056712;28;20052;-65
2022/11/22 10:16:03;;;;;;;21.03;3.90;;;;;;;;;;5066150;28;20413;-65
2022/11/22 10:18:48;;;;;;;15.13;3.73;;;;;;;;;;5063942;28;20052;-65
2022/11/22 10:21:14;;;;;;;17.07;3.20;;;;;;;;;;5063142;28;20052;-65
2022/11/22 10:23:42;;;;;;;13.37;3.33;;;;;;;;;;5055988;28;20078;-66
2022/11/22 10:26:28;;;;;;;13.30;2.83;;;;;;;;;;5070058;28;20398;-66
2022/11/22 10:29:00;;;;;;;9.97;2.77;;;;;;;;;;5050954;28;20537;-66
2022/11/22 10:31:45;;;;;;;17.13;3.43;;;;;;;;;;5060985;28;20491;-67
2022/11/22 10:34:11;;;;;;;16.60;4.23;;;;;;;;;;5058457;28;20052;-66
2022/11/22 10:37:06;;;;;;;12.07;2.67;;;;;;;;;;5055080;28;20052;-66
2022/11/22 10:39:44;;;;;;;9.30;3.27;;;;;;;;;;5063083;28;20098;-66
2022/11/22 10:42:17;;;;;;;16.00;3.50;;;;;;;;;;5069205;28;20060;-66
2022/11/22 10:44:51;;;;;;;15.73;3.03;;;;;;;;;;5051930;28;20049;-67
2022/11/22 10:47:21;;;;;;;11.20;2.60;;;;;;;;;;5040859;28;20053;-67
2022/11/22 10:50:11;;;;;;;8.00;2.70;;;;;;;;;;5046555;28;20056;-67
2022/11/22 10:52:47;;;;;;;9.60;2.50;;;;;;;;;;5044774;28;20094;-68
2022/11/22 10:55:21;;;;;;;17.10;2.93;;;;;;;;;;5041445;28;20094;-68
2022/11/22 10:57:56;;;;;;;10.50;2.67;;;;;;;;;;5044331;28;20052;-66
2022/11/22 11:00:23;;;;;;;11.00;2.30;;;;;;;;;;5062304;28;20053;-66
2022/11/22 11:03:11;;;;;;;7.23;2.10;;;;;;;;;;5063172;28;20121;-66
2022/11/22 11:05:59;;;;;;;9.57;2.50;;;;;;;;;;5065500;28;20041;-66
2022/11/22 11:08:36;;;;;;;9.57;2.23;;;;;;;;;;5064021;28;20059;-66
2022/11/22 11:11:02;;;;;;;12.03;2.70;;;;;;;;;;5061982;28;20052;-65
2022/11/22 11:13:31;;;;;;;11.30;2.20;;;;;;;;;;5054797;28;20092;-65
2022/11/22 11:15:58;;;;;;;12.03;2.00;;;;;;;;;;5063493;28;20044;-65
2022/11/22 11:18:43;;;;;;;9.80;2.47;;;;;;;;;;5066918;28;20060;-65
2022/11/22 11:21:12;;;;;;;10.13;2.23;;;;;;;;;;5066837;28;21373;-65
2022/11/22 11:23:38;;;;;;;11.90;2.30;;;;;;;;;;5048777;28;20045;-66
2022/11/22 11:26:23;;;;;;;12.03;2.50;;;;;;;;;;5049127;28;20134;-65
2022/11/22 11:28:49;;;;;;;6.63;2.60;;;;;;;;;;5048685;28;20087;-65
2022/11/22 11:31:17;;;;;;;9.83;2.03;;;;;;;;;;5056644;28;20041;-65
2022/11/22 11:33:43;;;;;;;11.87;2.10;;;;;;;;;;5067147;28;20052;-65
2022/11/22 11:36:09;;;;;;;9.33;1.90;;;;;;;;;;5067720;28;20045;-65
2022/11/22 11:38:37;;;;;;;11.53;2.40;;;;;;;;;;5067384;28;20056;-65
2022/11/22 11:41:17;;;;;;;10.00;2.13;;;;;;;;;;5068741;28;20561;-65
2022/11/22 11:43:43;;;;;;;12.33;1.97;;;;;;;;;;5068831;28;20050;-66
2022/11/22 11:46:17;;;;;;;9.13;2.07;;;;;;;;;;5068460;28;20446;-65
2022/11/22 11:48:43;;;;;;;;;;;;;;;;;;5067870;28;20056;-65
2022/11/22 11:51:17;;;;;;;7.97;2.00;;;;;;;;;;5068224;28;19978;-65
2022/11/22 11:53:49;;;;;;;9.47;1.87;;;;;;;;;;5048701;28;20143;-65
2022/11/22 11:56:19;;;;;;;7.68;1.80;;;;;;;;;;5048369;28;20056;-65
2022/11/22 11:58:50;;;;;;;16.23;2.60;;;;;;;;;;5048400;28;20600;-65
2022/11/22 12:01:20;;;;;;;16.67;2.53;;;;;;;;;;5048825;28;20052;-65
2022/11/22 12:03:57;;;;;;;9.60;1.90;;;;;;;;;;5048808;28;20045;-65
2022/11/22 12:06:27;;;;;;;6.83;1.63;;;;;;;;;;5048473;28;20081;-65
2022/11/22 12:08:53;;;;;;;10.60;3.27;;;;;;;;;;5048549;28;20410;-65
2022/11/22 12:11:40;;;;;;;9.77;1.77;;;;;;;;;;5047964;28;20132;-65
2022/11/22 12:14:08;;;;;;;11.13;2.20;;;;;;;;;;5046785;28;20045;-66
2022/11/22 12:16:38;;;;;;;11.13;2.00;;;;;;;;;;5048623;28;20041;-65
2022/11/22 12:19:16;;;;;;;12.00;1.90;;;;;;;;;;5048336;28;20049;-65
2022/11/22 12:21:42;;;;;;;7.90;1.50;;;;;;;;;;5055324;28;20585;-65
2022/11/22 12:24:17;;;;;;;8.37;2.17;;;;;;;;;;5059732;28;20462;-65
2022/11/22 12:26:43;;;;;;;4.37;1.57;;;;;;;;;;5072121;28;20040;-65
2022/11/22 12:29:11;;;;;;;10.23;1.50;;;;;;;;;;5072031;28;20049;-66
2022/11/22 12:31:40;;;;;;;8.30;1.97;;;;;;;;;;5072152;28;20048;-66
2022/11/22 12:34:26;;;;;;;7.60;1.50;;;;;;;;;;5071602;28;20055;-64
2022/11/22 12:36:57;;;;;;;6.57;1.70;;;;;;;;;;5071685;28;20048;-64
2022/11/22 12:39:27;;;;;;;7.13;2.13;;;;;;;;;;5071961;28;20053;-64
2022/11/22 12:42:14;;;;;;;7.30;2.27;;;;;;;;;;5071589;28;20472;-64
2022/11/22 12:44:44;;;;;;;8.23;2.60;;;;;;;;;;5071957;28;20090;-65
2022/11/22 12:47:13;;;;;;;7.17;2.00;;;;;;;;;;5071774;28;20498;-64
2022/11/22 12:49:42;;;;;;;8.87;2.10;;;;;;;;;;5071667;28;20154;-65
2022/11/22 12:52:11;;;;;;;7.03;1.60;;;;;;;;;;5071480;28;20498;-66
2022/11/22 12:54:42;;;;;;;8.53;1.67;;;;;;;;;;5071157;28;20045;-65
2022/11/22 12:57:15;;;;;;;6.93;1.50;;;;;;;;;;5071547;28;20479;-65
2022/11/22 13:00:04;;;;;;;9.60;1.75;;;;;;;;;;5070262;28;20049;-65
2022/11/22 13:02:33;;;;;;;9.20;1.67;;;;;;;;;;5068632;28;20049;-65
2022/11/22 13:05:12;;;;;;;10.70;1.83;;;;;;;;;;5071337;28;20550;-65
2022/11/22 13:07:51;;;;;;;9.00;1.90;;;;;;;;;;5071435;28;20461;-64
2022/11/22 13:10:26;;;;;;;4.87;1.47;;;;;;;;;;5071495;28;20056;-65
2022/11/22 13:12:53;;;;;;;7.20;1.77;;;;;;;;;;5069274;28;20414;-65
2022/11/22 13:15:26;;;;;;;6.90;1.30;;;;;;;;;;5071388;28;20060;-65
2022/11/22 13:17:53;;;;;;;6.85;1.58;;;;;;;;;;5070897;28;20099;-65
2022/11/22 13:20:20;;;;;;;8.80;1.87;;;;;;;;;;5070494;28;20047;-65
2022/11/22 13:22:59;;;;;;;6.07;1.67;;;;;;;;;;5070815;28;20048;-65
2022/11/22 13:25:44;;;;;;;6.80;1.50;;;;;;;;;;5068843;28;20048;-65
2022/11/22 13:28:21;;;;;;;3.73;1.57;;;;;;;;;;5049792;28;20049;-65
2022/11/22 13:31:05;;;;;;;4.27;1.20;;;;;;;;;;5051014;28;20616;-65
2022/11/22 13:33:32;;;;;;;4.20;1.27;;;;;;;;;;5050818;28;20054;-65
2022/11/22 13:36:30;;;;;;;6.73;1.70;;;;;;;;;;5050699;28;20124;-65
2022/11/22 13:39:31;;;;;;;5.60;1.60;;;;;;;;;;5038531;28;20148;-65
2022/11/22 13:41:57;;;;;;;7.87;1.50;;;;;;;;;;5028289;28;20532;-65
2022/11/22 13:44:24;;;;;;;7.43;1.77;;;;;;;;;;5046313;28;20045;-65
2022/11/22 13:46:50;;;;;;;7.77;1.60;;;;;;;;;;5050509;28;20450;-65
2022/11/22 13:49:28;;;;;;;5.83;1.80;;;;;;;;;;5050235;28;20060;-65
2022/11/22 13:51:54;;;;;;;7.30;1.63;;;;;;;;;;5050520;28;20049;-65
2022/11/22 13:54:36;;;;;;;8.03;1.80;;;;;;;;;;5049465;28;20057;-64
2022/11/22 13:57:03;;;;;;;6.57;3.17;;;;;;;;;;5050403;28;20049;-65
2022/11/22 13:59:29;;;;;;;9.57;2.60;;;;;;;;;;5050491;28;20128;-65
2022/11/22 14:01:56;;;;;;;7.33;2.83;;;;;;;;;;5050172;28;20040;-64
2022/11/22 14:04:25;;;;;;;5.17;1.67;;;;;;;;;;5049888;28;20049;-64
2022/11/22 14:06:57;;;;;;;5.67;2.07;;;;;;;;;;5050134;28;20259;-65
2022/11/22 14:09:33;;;;;;;4.53;1.30;;;;;;;;;;5049539;28;20056;-64
2022/11/22 14:12:23;;;;;;;5.87;1.60;;;;;;;;;;5050118;28;20053;-64
2022/11/22 14:14:51;;;;;;;7.57;2.43;;;;;;;;;;5049250;28;20530;-64
2022/11/22 14:17:17;;;;;;;5.90;1.73;;;;;;;;;;5049835;28;20118;-65
2022/11/22 14:20:00;;;;;;;6.67;1.40;;;;;;;;;;5058782;28;20080;-65
2022/11/22 14:22:41;;;;;;;5.87;1.43;;;;;;;;;;5069786;28;20039;-65
2022/11/22 14:25:07;;;;;;;6.80;1.47;;;;;;;;;;5067735;28;20053;-65
2022/11/22 14:27:36;;;;;;;3.90;1.30;;;;;;;;;;5062615;28;20143;-65
2022/11/22 14:30:19;;;;;;;8.70;1.83;;;;;;;;;;5056458;28;20044;-65
2022/11/22 14:32:49;;;;;;;7.77;1.70;;;;;;;;;;5058047;28;20056;-65
2022/11/22 14:35:18;;;;;;;5.90;2.93;;;;;;;;;;5057450;28;20056;-66
2022/11/22 14:37:56;;;;;;;6.03;2.70;;;;;;;;;;5058951;28;20052;-64
2022/11/22 14:40:34;;;;;;;6.40;1.73;;;;;;;;;;5059436;28;20571;-66
2022/11/22 14:43:20;;;;;;;5.77;1.67;;;;;;;;;;5053419;28;20084;-64
2022/11/22 14:45:49;;;;;;;7.13;1.77;;;;;;;;;;5056462;28;20048;-64
2022/11/22 14:48:24;;;;;;;7.57;2.13;;;;;;;;;;5060194;28;20080;-64
2022/11/22 14:50:59;;;;;;;8.73;2.77;;;;;;;;;;5062953;28;20040;-64
2022/11/22 14:53:31;;;;;;;6.50;2.20;;;;;;;;;;5068966;28;20513;-64